LFBG/CNG METAR and TAF weather

Enter ICAO airport designator
Station Type Date Time Source
LFBG METAR 2022/06/29 00:30 UTC NOAA

LFBG 290030Z AUTO 00000KT CAVOK 14/11 Q1018 NOSIG


Station Type Date Time Source
LFBG Decoded METAR 2022/06/29 00:30 UTC NOAA

Cognac, France (LFBG) 45-40N 000-19W 31M
Jun 28, 2022 - 08:30 PM EDT / 2022.06.29 0030 UTC
Wind: Calm:0
Visibility: greater than 7 mile(s):0
Temperature: 57 F (14 C)
Dew Point: 51 F (11 C)
Relative Humidity: 82%
Pressure (altimeter): 30.06 in. Hg (1018 hPa)
ob: LFBG 290030Z AUTO 00000KT CAVOK 14/11 Q1018 NOSIG
cycle: 0

Station Type Date Time Source
LFBG TAF 2022/06/28 21:15 UTC NOAA

TAF LFBG 282000Z 2821/2921 29005KT CAVOK PROB30
TEMPO 2915/2919 -RA

Example: see airport list